»·PEaware :: N707CP KJAC-KBOI

N707CP :: KJAC-KBOI

FLIGHT INFORMATION

Flight Status: Arrived
Operator: Privately registered:
United States
More flights under this callsign
Pilot: Chase W. (8260)
Aircraft: EMBRAER BANDEIRANTE
(E110)
More flights by this aircraft type
Origin: KJAC Jackson Hole
United States
Destination: KBOI Boise Air Terminal/Gowen
United States
More flights between these airports :: More routes between these airports
Route: ALPIN2 KICNE PIH J163 BOI
File this flight plan on PilotEdge
Remarks:
Altitude:
(Current/Filed)
18,000ft
Speed:
(Current/Filed)
200kts
Departed: 11-Feb-18 11:28 AM
Arrived: 11-Feb-18 12:56 PM
Distance/Time
Traveled:
239nm/1:27
Distance/Time
To Go:
Arrived

Flight Plot

Page will automatically refresh every two minutes.

Flight plan parsing failed; only flown route is shown


Map Options




Map Legend


Flown Route
Filed Route
Departure Airport
Arrival Airport
Navaid (VOR, NDB)
Fix

Horizontal Profiles

Position Reports

Time Latitude Longitude Heading Altitude Ground
Speed
11-Feb-18 11:21 43.601852 -110.737753 110 6456ft 0kts
11-Feb-18 11:22 43.601852 -110.737753 110 6456ft 0kts
11-Feb-18 11:23 43.601852 -110.737753 109 6456ft 0kts
11-Feb-18 11:24 43.601852 -110.737753 110 6456ft 0kts
11-Feb-18 11:25 43.601852 -110.737753 110 6456ft 0kts
11-Feb-18 11:26 43.601852 -110.737753 110 6456ft 0kts
11-Feb-18 11:27 43.601852 -110.737753 110 6456ft 0kts
11-Feb-18 11:28 43.601852 -110.737753 110 6456ft 0kts
11-Feb-18 11:29 43.601915 -110.737667 353 6456ft 0kts
11-Feb-18 11:30 43.602120 -110.738362 296 6456ft 8kts
11-Feb-18 11:31 43.606042 -110.736806 19 6456ft 25kts
11-Feb-18 11:32 43.611538 -110.734114 18 6456ft 20kts
11-Feb-18 11:33 43.614950 -110.732602 335 6456ft 0kts
11-Feb-18 11:34 43.615224 -110.733612 284 6456ft 3kts
11-Feb-18 11:35 43.603431 -110.739607 200 6483ft 131kts
11-Feb-18 11:36 43.567063 -110.762967 206 7467ft 168kts
11-Feb-18 11:37 43.526948 -110.789352 206 8764ft 173kts
11-Feb-18 11:38 43.486281 -110.815734 206 10066ft 174kts
11-Feb-18 11:39 43.446076 -110.841717 206 11293ft 173kts
11-Feb-18 11:40 43.406821 -110.867032 206 12427ft 172kts
11-Feb-18 11:41 43.365852 -110.893352 207 13562ft 170kts
11-Feb-18 11:42 43.326196 -110.918808 208 14618ft 167kts
11-Feb-18 11:43 43.287079 -110.943933 209 15613ft 164kts
11-Feb-18 11:44 43.248806 -110.968507 210 16540ft 161kts
11-Feb-18 11:45 43.217643 -111.001368 254 17233ft 159kts
11-Feb-18 11:46 43.206508 -111.053107 253 18099ft 151kts
11-Feb-18 11:47 43.194633 -111.109381 253 18066ft 180kts
11-Feb-18 11:48 43.181762 -111.172012 253 18058ft 191kts
11-Feb-18 11:49 43.168491 -111.236950 253 18053ft 195kts
11-Feb-18 11:50 43.155135 -111.302406 253 18050ft 197kts
11-Feb-18 11:51 43.141976 -111.366752 253 18049ft 198kts
11-Feb-18 11:52 43.128192 -111.433931 253 18055ft 197kts
11-Feb-18 11:53 43.114550 -111.500251 253 18062ft 197kts
11-Feb-18 11:54 43.101345 -111.564213 254 18067ft 197kts
11-Feb-18 11:54 43.089913 -111.619436 253 18071ft 197kts
11-Feb-18 11:56 43.074311 -111.694503 253 18077ft 198kts
11-Feb-18 11:57 43.060262 -111.761931 253 18077ft 199kts
11-Feb-18 11:58 43.046003 -111.830142 253 18076ft 199kts
11-Feb-18 11:59 43.031707 -111.898281 253 18075ft 199kts
11-Feb-18 11:59 43.019784 -111.954891 253 18074ft 199kts
11-Feb-18 12:00 43.005488 -112.022606 253 18071ft 199kts
11-Feb-18 12:01 42.991264 -112.089810 253 18066ft 199kts
11-Feb-18 12:02 42.976919 -112.157315 253 18058ft 199kts
11-Feb-18 12:03 42.962424 -112.225336 253 18052ft 199kts
11-Feb-18 12:04 42.947957 -112.293018 254 18047ft 199kts
11-Feb-18 12:05 42.933251 -112.361591 254 18045ft 199kts
11-Feb-18 12:06 42.918158 -112.431750 254 18045ft 199kts
11-Feb-18 12:07 42.903434 -112.499934 254 18044ft 198kts
11-Feb-18 12:08 42.889279 -112.565267 254 18046ft 199kts
11-Feb-18 12:10 42.874402 -112.633739 254 18045ft 199kts
11-Feb-18 12:11 42.881805 -112.702965 280 18053ft 203kts
11-Feb-18 12:12 42.896483 -112.775621 281 18051ft 204kts
11-Feb-18 12:13 42.911716 -112.849155 281 18051ft 204kts
11-Feb-18 12:14 42.926987 -112.922643 281 18050ft 204kts
11-Feb-18 12:15 42.942080 -112.995589 281 18050ft 204kts
11-Feb-18 12:16 42.957125 -113.068573 281 18046ft 204kts
11-Feb-18 12:17 42.972165 -113.141656 281 18035ft 205kts
11-Feb-18 12:18 42.987237 -113.215158 281 18023ft 206kts
11-Feb-18 12:19 43.002330 -113.289024 281 18012ft 207kts
11-Feb-18 12:20 43.017349 -113.362697 282 18011ft 208kts
11-Feb-18 12:21 43.032567 -113.437654 282 17965ft 211kts
11-Feb-18 12:22 43.047978 -113.513907 282 17965ft 211kts
11-Feb-18 12:23 43.063426 -113.590481 282 17964ft 212kts
11-Feb-18 12:24 43.078215 -113.664187 281 17969ft 212kts
11-Feb-18 12:25 43.093538 -113.740850 281 17969ft 212kts
11-Feb-18 12:26 43.107921 -113.813018 281 17967ft 212kts
11-Feb-18 12:27 43.122889 -113.888477 281 17966ft 212kts
11-Feb-18 12:28 43.137702 -113.963406 281 17966ft 212kts
11-Feb-18 12:29 43.152587 -114.039011 281 17965ft 212kts
11-Feb-18 12:30 43.167530 -114.115179 281 17965ft 212kts
11-Feb-18 12:31 43.182198 -114.190231 281 17965ft 212kts
11-Feb-18 12:32 43.196712 -114.264809 281 17965ft 212kts
11-Feb-18 12:33 43.211021 -114.338591 281 17964ft 212kts
11-Feb-18 12:34 43.225264 -114.412308 281 17964ft 212kts
11-Feb-18 12:35 43.239380 -114.485656 281 17964ft 211kts
11-Feb-18 12:36 43.253131 -114.557370 281 17963ft 211kts
11-Feb-18 12:37 43.266272 -114.626175 281 17962ft 211kts
11-Feb-18 12:38 43.278770 -114.692051 281 17568ft 223kts
11-Feb-18 12:39 43.292747 -114.765750 281 16596ft 233kts
11-Feb-18 12:40 43.305557 -114.833556 281 15727ft 237kts
11-Feb-18 12:41 43.317655 -114.897765 281 14978ft 239kts
11-Feb-18 12:42 43.328680 -114.956481 282 14312ft 240kts
11-Feb-18 12:43 43.338910 -115.010986 282 13710ft 241kts
11-Feb-18 12:44 43.348021 -115.059565 281 13185ft 241kts
11-Feb-18 12:45 43.356131 -115.102864 281 12720ft 240kts
11-Feb-18 12:46 43.366014 -115.156061 281 12149ft 238kts
11-Feb-18 12:47 43.376239 -115.211150 280 11562ft 238kts
11-Feb-18 12:48 43.386622 -115.267593 280 11005ft 250kts
11-Feb-18 12:49 43.397036 -115.324478 280 10510ft 258kts
11-Feb-18 12:50 43.408441 -115.386683 280 10006ft 262kts
11-Feb-18 12:51 43.422131 -115.464602 284 10155ft 250kts
11-Feb-18 12:52 43.438341 -115.551355 284 10146ft 250kts
11-Feb-18 12:53 43.453173 -115.632583 284 9670ft 257kts
11-Feb-18 12:54 43.465823 -115.702651 283 9062ft 257kts
11-Feb-18 12:55 43.476682 -115.763041 283 8555ft 257kts
11-Feb-18 12:56 43.488809 -115.830805 283 8151ft 250kts
11-Feb-18 12:57 43.501341 -115.902951 278 7813ft 238kts
11-Feb-18 12:58 43.508797 -115.980079 277 7305ft 233kts
11-Feb-18 12:59 43.515836 -116.053429 277 6708ft 223kts
11-Feb-18 13:00 43.528525 -116.115040 293 5261ft 186kts
11-Feb-18 13:01 43.543189 -116.157599 295 4165ft 159kts
11-Feb-18 13:02 43.558193 -116.201406 295 2909ft 120kts
11-Feb-18 13:03 43.562396 -116.216569 174 2876ft 5kts
11-Feb-18 13:04 43.562031 -116.216529 176 2876ft 2kts
11-Feb-18 13:05 43.560153 -116.217429 292 2876ft 14kts
11-Feb-18 13:06 43.561903 -116.222556 295 2876ft 21kts
11-Feb-18 13:07 43.564700 -116.230684 296 2876ft 28kts
11-Feb-18 13:08 43.564265 -116.232635 175 2876ft 5kts
11-Feb-18 13:09 43.563631 -116.230169 115 2876ft 0kts
11-Feb-18 13:10 43.563247 -116.230232 118 2876ft 0kts
11-Feb-18 13:11 43.563246 -116.230229 115 2876ft 0kts

Navigation Log

Ident Type
Flight plan parsing failed, navigation log unavailable